createdAt,value
2023-05-04T00:02:01.541Z,99107.47
2023-05-04T00:05:08.633Z,99099.94
2023-05-04T00:08:15.167Z,99098.38
2023-05-04T00:11:20.954Z,99102.88
2023-05-04T00:14:30.099Z,99100.59
2023-05-04T00:17:35.786Z,99096.22
2023-05-04T00:20:42.241Z,99092.66
2023-05-04T00:23:48.010Z,99088.34
2023-05-04T00:26:54.790Z,99094.50
2023-05-04T00:30:03.280Z,99084.13
2023-05-04T00:33:09.927Z,99090.53
2023-05-04T00:36:16.946Z,99095.03
2023-05-04T00:39:23.456Z,99090.13
2023-05-04T00:42:29.021Z,99078.09
2023-05-04T00:45:38.715Z,99074.69
2023-05-04T00:48:46.443Z,99072.22
2023-05-04T00:51:54.587Z,99078.59
2023-05-04T00:55:01.250Z,99078.59
2023-05-04T00:58:09.285Z,99080.41
2023-05-04T01:01:17.575Z,99064.69
2023-05-04T01:04:24.149Z,99070.00
2023-05-04T01:07:41.718Z,99069.09
2023-05-04T01:10:59.693Z,99063.78
2023-05-04T01:14:05.661Z,99068.13
2023-05-04T01:17:15.639Z,99069.94
2023-05-04T01:20:22.397Z,99069.94
2023-05-04T01:23:31.097Z,99063.13
2023-05-04T01:26:46.549Z,99066.81
2023-05-04T01:30:03.809Z,99060.63
2023-05-04T01:33:12.116Z,98981.75
2023-05-04T01:36:18.875Z,99057.56
2023-05-04T01:39:28.025Z,99058.53
2023-05-04T01:42:33.516Z,99044.03
2023-05-04T01:45:40.175Z,99053.53
2023-05-04T01:48:45.696Z,99046.75
2023-05-04T01:51:52.341Z,99051.16
2023-05-04T01:55:01.074Z,99050.38
2023-05-04T01:58:07.594Z,99041.88
2023-05-04T02:01:13.132Z,99054.16
2023-05-04T02:04:19.870Z,99049.03
2023-05-04T02:07:25.589Z,99050.03
2023-05-04T02:10:35.193Z,99045.84
2023-05-04T02:13:40.767Z,99051.22
2023-05-04T02:16:47.192Z,99054.16
2023-05-04T02:19:52.708Z,99043.94
2023-05-04T02:22:59.062Z,99045.88
2023-05-04T02:26:07.411Z,99053.06
2023-05-04T02:29:13.785Z,99033.44
2023-05-04T02:32:19.244Z,99043.69
2023-05-04T02:35:25.916Z,99045.47
2023-05-04T02:38:31.957Z,99044.81
2023-05-04T02:41:41.068Z,99046.06
2023-05-04T02:44:46.582Z,99047.97
2023-05-04T02:47:53.001Z,99051.41
2023-05-04T02:50:58.574Z,99055.16
2023-05-04T02:54:04.988Z,99054.59
2023-05-04T02:57:13.542Z,99060.63
2023-05-04T03:00:20.912Z,99057.31
2023-05-04T03:03:26.520Z,99059.13
2023-05-04T03:06:32.996Z,99057.50
2023-05-04T03:09:38.572Z,99057.56
2023-05-04T03:12:48.388Z,99056.63
2023-05-04T03:15:53.959Z,99060.97
2023-05-04T03:19:00.691Z,99064.25
2023-05-04T03:22:06.501Z,99046.75
2023-05-04T03:25:13.456Z,99042.38
2023-05-04T03:28:22.198Z,99053.00
2023-05-04T03:31:29.336Z,99062.69
2023-05-04T03:34:35.068Z,99058.28
2023-05-04T03:37:44.120Z,99054.00
2023-05-04T03:40:49.844Z,99045.78
2023-05-04T03:43:59.133Z,99061.47
2023-05-04T03:47:04.709Z,99060.50
2023-05-04T03:50:13.551Z,99070.97
2023-05-04T03:53:21.044Z,99058.81
2023-05-04T03:56:27.490Z,99065.72
2023-05-04T03:59:36.081Z,99058.56
2023-05-04T04:02:45.760Z,99056.78
2023-05-04T04:05:56.769Z,99059.22
2023-05-04T04:09:05.681Z,99036.84
2023-05-04T04:12:11.706Z,99052.03
2023-05-04T04:15:20.888Z,99059.47
2023-05-04T04:18:27.670Z,99057.44
2023-05-04T04:21:34.095Z,99058.97
2023-05-04T04:24:39.640Z,99064.72
2023-05-04T04:27:45.951Z,99055.63
2023-05-04T04:30:54.271Z,99065.13
2023-05-04T04:34:01.015Z,99068.97
2023-05-04T04:37:06.524Z,99067.56
2023-05-04T04:40:14.304Z,99065.34
2023-05-04T04:43:19.774Z,99069.47
2023-05-04T04:46:28.926Z,99070.66
2023-05-04T04:49:35.273Z,99062.38
2023-05-04T04:52:41.958Z,99063.84
2023-05-04T04:55:48.957Z,99032.50
2023-05-04T04:58:55.228Z,99068.69
2023-05-04T05:02:04.323Z,99062.06
2023-05-04T05:05:13.139Z,99065.13
2023-05-04T05:08:18.880Z,99061.31
2023-05-04T05:11:26.182Z,99066.16
2023-05-04T05:14:31.982Z,99058.78
2023-05-04T05:17:41.035Z,99073.97
2023-05-04T05:20:46.592Z,99072.50
2023-05-04T05:23:53.052Z,99071.13
2023-05-04T05:26:58.555Z,99068.69
2023-05-04T05:30:06.988Z,99073.66
2023-05-04T05:33:15.754Z,99066.94
2023-05-04T05:36:22.599Z,99070.69
2023-05-04T05:39:29.394Z,99059.03
2023-05-04T05:42:36.207Z,99063.44
2023-05-04T05:45:41.934Z,99070.41
2023-05-04T05:48:51.333Z,99070.47
2023-05-04T05:51:56.874Z,99074.28
2023-05-04T05:55:03.239Z,99077.22
2023-05-04T05:58:11.399Z,99076.72
2023-05-04T06:01:17.763Z,99078.88
2023-05-04T06:04:26.073Z,99035.75
2023-05-04T06:07:32.703Z,99078.13
2023-05-04T06:10:38.600Z,99070.81
2023-05-04T06:13:45.223Z,99073.38
2023-05-04T06:16:50.897Z,99068.25
2023-05-04T06:20:00.248Z,99072.41
2023-05-04T06:23:06.192Z,98876.38
2023-05-04T06:26:12.873Z,99064.41
2023-05-04T06:29:18.541Z,99073.13
2023-05-04T06:32:25.092Z,99071.88
2023-05-04T06:35:35.054Z,99065.50
2023-05-04T06:38:41.481Z,99061.06
2023-05-04T06:41:47.333Z,99069.03
2023-05-04T06:44:56.377Z,99059.91
2023-05-04T06:48:01.963Z,99065.97
2023-05-04T06:51:11.344Z,99064.47
2023-05-04T06:54:16.892Z,99073.53
2023-05-04T06:57:23.237Z,99071.81
2023-05-04T07:00:29.340Z,99073.34
2023-05-04T07:03:36.108Z,99064.97
2023-05-04T07:06:45.760Z,99069.22
2023-05-04T07:09:52.176Z,99053.84
2023-05-04T07:12:58.209Z,99059.03
2023-05-04T07:16:04.799Z,99051.88
2023-05-04T07:19:10.710Z,99050.56
2023-05-04T07:22:21.190Z,99063.97
2023-05-04T07:25:27.779Z,99060.56
2023-05-04T07:28:35.942Z,99066.44
2023-05-04T07:31:41.771Z,99063.38
2023-05-04T07:34:48.590Z,99064.22
2023-05-04T07:37:56.864Z,99063.13
2023-05-04T07:41:03.454Z,99059.47
2023-05-04T07:44:11.413Z,99059.06
2023-05-04T07:47:17.867Z,99062.84
2023-05-04T07:50:23.657Z,99066.91
2023-05-04T07:53:33.033Z,99049.44
2023-05-04T07:56:38.836Z,99060.00
2023-05-04T07:59:45.161Z,99055.66
2023-05-04T08:02:51.141Z,98881.75
2023-05-04T08:05:57.785Z,99059.00
2023-05-04T08:09:06.532Z,99042.00
2023-05-04T08:12:13.217Z,99055.00
2023-05-04T08:15:18.792Z,99055.16
2023-05-04T08:18:25.211Z,99053.78
2023-05-04T08:21:31.530Z,99051.69
2023-05-04T08:24:40.856Z,99055.28
2023-05-04T08:27:46.732Z,99060.75
2023-05-04T08:30:53.149Z,99062.47
2023-05-04T08:33:58.658Z,99062.47
2023-05-04T08:37:05.075Z,99064.78
2023-05-04T08:40:19.449Z,99064.25
2023-05-04T08:43:26.424Z,99059.19
2023-05-04T08:46:36.593Z,99052.31
2023-05-04T08:49:43.021Z,99058.47
2023-05-04T08:52:50.009Z,99060.28
2023-05-04T08:56:04.795Z,99061.31
2023-05-04T08:59:21.736Z,99051.19
2023-05-04T09:02:29.620Z,99059.19
2023-05-04T09:05:35.893Z,99046.69
2023-05-04T09:08:42.827Z,99040.47
2023-05-04T09:11:51.184Z,99054.97
2023-05-04T09:14:57.716Z,99052.66
2023-05-04T09:18:07.340Z,99045.25
2023-05-04T09:21:15.713Z,99044.84
2023-05-04T09:24:30.021Z,99047.81
2023-05-04T09:27:40.782Z,99039.56
2023-05-04T09:30:47.118Z,99042.72
2023-05-04T09:33:53.842Z,99042.31
2023-05-04T09:37:03.216Z,99038.16
2023-05-04T09:40:11.716Z,99038.72
2023-05-04T09:43:20.125Z,99030.66
2023-05-04T09:46:26.869Z,99036.28
2023-05-04T09:49:37.282Z,99034.78
2023-05-04T09:52:46.816Z,99007.19
2023-05-04T09:56:12.145Z,99015.41
2023-05-04T09:59:24.028Z,99020.09
2023-05-04T10:02:30.305Z,99014.97
2023-05-04T10:05:37.046Z,99010.53
2023-05-04T10:08:44.241Z,99011.38
2023-05-04T10:11:52.227Z,99019.88
2023-05-04T10:15:01.602Z,99018.81
2023-05-04T10:18:28.449Z,99005.22
2023-05-04T10:21:52.162Z,99006.72
2023-05-04T10:25:47.526Z,98995.81
2023-05-04T10:29:15.316Z,98981.75
2023-05-04T10:32:26.250Z,98958.03
2023-05-04T10:35:32.591Z,98987.97
2023-05-04T10:38:41.307Z,98982.06
2023-05-04T10:42:09.300Z,98967.97
2023-05-04T10:45:16.074Z,98971.16
2023-05-04T10:48:24.499Z,98973.16
2023-05-04T10:51:42.381Z,98964.34
2023-05-04T10:55:04.329Z,98959.56
2023-05-04T10:58:11.850Z,98957.47
2023-05-04T11:01:17.625Z,98958.19
2023-05-04T11:04:27.723Z,98955.28
2023-05-04T11:07:39.437Z,98957.03
2023-05-04T11:10:46.810Z,98949.16
2023-05-04T11:13:53.497Z,98917.78
2023-05-04T11:17:26.583Z,98939.19
2023-05-04T11:20:36.450Z,98950.78
2023-05-04T11:23:43.990Z,98943.91
2023-05-04T11:26:51.233Z,98943.28
2023-05-04T11:30:02.633Z,98934.25
2023-05-04T11:33:16.036Z,98936.19
2023-05-04T11:36:27.211Z,98927.88
2023-05-04T11:39:35.570Z,98930.53
2023-05-04T11:42:43.234Z,98934.25
2023-05-04T11:45:54.404Z,98920.66
2023-05-04T11:49:02.058Z,98917.41
2023-05-04T11:52:14.818Z,98917.34
2023-05-04T11:55:34.229Z,98914.88
2023-05-04T11:58:41.466Z,98911.75
2023-05-04T12:01:48.195Z,98907.78
2023-05-04T12:04:54.171Z,98914.16
2023-05-04T12:08:04.080Z,98915.03
2023-05-04T12:11:22.381Z,98907.34
2023-05-04T12:14:28.800Z,98901.53
2023-05-04T12:17:43.935Z,98899.97
2023-05-04T12:20:50.584Z,98900.38
2023-05-04T12:23:59.855Z,98899.88
2023-05-04T12:27:06.643Z,98879.47
2023-05-04T12:30:14.002Z,98886.72
2023-05-04T12:33:20.467Z,98888.78
2023-05-04T12:36:25.988Z,98881.66
2023-05-04T12:39:35.517Z,98886.81
2023-05-04T12:42:42.619Z,98881.78
2023-05-04T12:45:49.173Z,98884.19
2023-05-04T12:48:54.659Z,98879.47
2023-05-04T12:52:07.009Z,98877.53
2023-05-04T12:55:15.468Z,98868.13
2023-05-04T12:58:22.307Z,98870.78
2023-05-04T13:01:28.151Z,98877.28
2023-05-04T13:04:34.614Z,98879.72
2023-05-04T13:07:40.146Z,98872.50
2023-05-04T13:10:49.490Z,98863.53
2023-05-04T13:13:56.102Z,98861.13
2023-05-04T13:17:03.004Z,98858.38
2023-05-04T13:20:10.268Z,98847.84
2023-05-04T13:23:17.271Z,98841.78
2023-05-04T13:26:25.560Z,98841.72
2023-05-04T13:29:31.972Z,98831.00
2023-05-04T13:32:37.604Z,98825.66
2023-05-04T13:35:45.041Z,98753.94
2023-05-04T13:38:50.636Z,98820.44
2023-05-04T13:41:59.987Z,98817.59
2023-05-04T13:45:05.930Z,98821.84
2023-05-04T13:48:12.896Z,98813.41
2023-05-04T13:51:18.530Z,98809.09
2023-05-04T13:54:26.176Z,98812.66
2023-05-04T13:57:34.500Z,98814.75
2023-05-04T14:00:40.989Z,98803.84
2023-05-04T14:03:46.974Z,98796.50
2023-05-04T14:06:54.260Z,98805.38
2023-05-04T14:10:00.005Z,98790.56
2023-05-04T14:13:09.374Z,98790.47
2023-05-04T14:16:15.153Z,98790.50
2023-05-04T14:19:21.607Z,98792.25
2023-05-04T14:22:27.111Z,98800.41
2023-05-04T14:25:33.586Z,98779.94
2023-05-04T14:28:41.946Z,98778.72
2023-05-04T14:31:48.419Z,98782.84
2023-05-04T14:34:54.361Z,98791.69
2023-05-04T14:38:00.812Z,98783.25
2023-05-04T14:41:08.667Z,98779.66
2023-05-04T14:44:18.159Z,98785.41
2023-05-04T14:47:23.742Z,98777.28
2023-05-04T14:50:30.300Z,98778.00
2023-05-04T14:53:37.270Z,98779.94
2023-05-04T14:56:48.028Z,98772.22
2023-05-04T14:59:56.306Z,98781.56
2023-05-04T15:03:02.715Z,98774.31
2023-05-04T15:06:10.698Z,98771.31
2023-05-04T15:09:17.025Z,98775.31
2023-05-04T15:12:22.663Z,98770.91
2023-05-04T15:15:31.962Z,98763.47
2023-05-04T15:18:37.433Z,98759.72
2023-05-04T15:21:43.786Z,98761.63
2023-05-04T15:24:49.539Z,98759.59
2023-05-04T15:27:56.271Z,98767.25
2023-05-04T15:31:07.516Z,98760.41
2023-05-04T15:34:16.187Z,98755.94
2023-05-04T15:37:25.949Z,98762.63
2023-05-04T15:40:32.552Z,98753.50
2023-05-04T15:43:38.815Z,98748.03
2023-05-04T15:46:47.976Z,98739.72
2023-05-04T15:49:53.450Z,98738.25
2023-05-04T15:53:00.034Z,98739.81
2023-05-04T15:56:06.324Z,98731.28
2023-05-04T15:59:13.381Z,98735.28
2023-05-04T16:02:22.564Z,98732.97
2023-05-04T16:05:29.157Z,98738.53
2023-05-04T16:08:34.688Z,98728.94
2023-05-04T16:11:41.131Z,98738.81
2023-05-04T16:14:46.907Z,98740.69
2023-05-04T16:17:56.350Z,98732.13
2023-05-04T16:21:02.030Z,98740.69
2023-05-04T16:24:10.389Z,98737.97
2023-05-04T16:27:16.612Z,98731.59
2023-05-04T16:30:26.421Z,98738.00
2023-05-04T16:33:35.046Z,98742.69
2023-05-04T16:36:41.436Z,98741.19
2023-05-04T16:39:47.155Z,98731.63
2023-05-04T16:42:53.967Z,98730.63
2023-05-04T16:45:59.755Z,98740.50
2023-05-04T16:49:10.499Z,98731.16
2023-05-04T16:52:16.877Z,98735.31
2023-05-04T16:55:23.925Z,98738.63
2023-05-04T16:58:30.936Z,98742.03
2023-05-04T17:01:38.464Z,98729.84
2023-05-04T17:04:47.042Z,98737.56
2023-05-04T17:07:54.363Z,98739.34
2023-05-04T17:11:02.101Z,98744.72
2023-05-04T17:14:08.627Z,98733.72
2023-05-04T17:17:14.348Z,98739.16
2023-05-04T17:20:28.839Z,98749.81
2023-05-04T17:23:35.432Z,98745.75
2023-05-04T17:26:42.313Z,98755.34
2023-05-04T17:29:48.191Z,98750.34
2023-05-04T17:32:57.436Z,98744.19
2023-05-04T17:36:07.971Z,98755.75
2023-05-04T17:39:14.786Z,98754.59
2023-05-04T17:42:20.588Z,98753.75
2023-05-04T17:45:28.276Z,98751.72
2023-05-04T17:48:36.618Z,98709.84
2023-05-04T17:51:46.289Z,98761.00
2023-05-04T17:54:52.061Z,98760.53
2023-05-04T17:57:58.572Z,98757.41
2023-05-04T18:01:04.585Z,98767.69
2023-05-04T18:04:11.586Z,98772.38
2023-05-04T18:07:20.431Z,98760.72
2023-05-04T18:10:27.469Z,98776.75
2023-05-04T18:13:33.299Z,98783.72
2023-05-04T18:16:40.197Z,98783.69
2023-05-04T18:19:46.120Z,98793.78
2023-05-04T18:22:56.080Z,98789.69
2023-05-04T18:26:01.950Z,98794.31
2023-05-04T18:29:18.297Z,98794.94
2023-05-04T18:32:25.231Z,98797.00
2023-05-04T18:35:33.824Z,98805.66
2023-05-04T18:38:42.816Z,98803.75
2023-05-04T18:41:49.845Z,98809.75
2023-05-04T18:44:58.749Z,98804.31
2023-05-04T18:48:05.717Z,98812.84
2023-05-04T18:51:14.969Z,98812.38
2023-05-04T18:54:25.648Z,98810.41
2023-05-04T18:57:32.462Z,98819.56
2023-05-04T19:00:40.763Z,98816.53
2023-05-04T19:03:47.336Z,98811.06
2023-05-04T19:06:57.237Z,98813.69
2023-05-04T19:10:09.324Z,98813.66
2023-05-04T19:13:17.131Z,98816.84
2023-05-04T19:16:25.129Z,98806.97
2023-05-04T19:19:34.051Z,98805.06
2023-05-04T19:22:41.666Z,98807.44
2023-05-04T19:25:51.805Z,98799.22
2023-05-04T19:28:58.093Z,98803.28
2023-05-04T19:32:15.620Z,98795.91
2023-05-04T19:35:31.077Z,98802.47
2023-05-04T19:38:38.159Z,98803.75
2023-05-04T19:41:47.817Z,98803.97
2023-05-04T19:44:56.387Z,98803.38
2023-05-04T19:48:03.897Z,98796.59
2023-05-04T19:51:14.343Z,98788.78
2023-05-04T19:54:20.893Z,98783.06
2023-05-04T19:57:32.205Z,98788.47
2023-05-04T20:00:38.348Z,98775.59
2023-05-04T20:03:48.083Z,98775.06
2023-05-04T20:06:55.841Z,98768.28
2023-05-04T20:10:02.843Z,98778.34
2023-05-04T20:13:15.616Z,98780.25
2023-05-04T20:16:24.434Z,98781.66
2023-05-04T20:19:30.376Z,98777.69
2023-05-04T20:22:38.915Z,98780.78
2023-05-04T20:25:46.424Z,98782.91
2023-05-04T20:28:56.438Z,98783.13
2023-05-04T20:32:03.328Z,98783.34
2023-05-04T20:35:12.075Z,98774.88
2023-05-04T20:38:18.702Z,98772.31
2023-05-04T20:41:25.781Z,98780.38
2023-05-04T20:44:34.431Z,98759.88
2023-05-04T20:47:43.053Z,98771.28
2023-05-04T20:50:49.461Z,98768.44
2023-05-04T20:53:57.336Z,98781.63
2023-05-04T20:57:03.577Z,98774.13
2023-05-04T21:00:15.660Z,98780.69
2023-05-04T21:03:21.581Z,98778.47
2023-05-04T21:06:28.348Z,98762.16
2023-05-04T21:09:34.362Z,98759.00
2023-05-04T21:12:41.009Z,98754.16
2023-05-04T21:15:51.750Z,98744.72
2023-05-04T21:18:58.381Z,98755.41
2023-05-04T21:22:04.291Z,98751.16
2023-05-04T21:25:12.181Z,98759.28
2023-05-04T21:28:17.713Z,98756.84
2023-05-04T21:31:27.072Z,98756.84
2023-05-04T21:34:32.651Z,98736.09
2023-05-04T21:37:39.249Z,98749.09
2023-05-04T21:40:44.896Z,98748.56
2023-05-04T21:43:51.941Z,98750.47
2023-05-04T21:47:01.393Z,98726.38
2023-05-04T21:50:09.241Z,98742.00
2023-05-04T21:53:15.018Z,98742.22
2023-05-04T21:56:21.411Z,98745.03
2023-05-04T21:59:27.563Z,98739.03
2023-05-04T22:02:36.792Z,98741.13
2023-05-04T22:05:42.364Z,98749.22
2023-05-04T22:08:48.824Z,98739.19
2023-05-04T22:11:56.042Z,98743.63
2023-05-04T22:15:02.391Z,98741.94
2023-05-04T22:18:10.731Z,98739.50
2023-05-04T22:21:17.031Z,98747.59
2023-05-04T22:24:22.764Z,98734.06
2023-05-04T22:27:29.307Z,98748.09
2023-05-04T22:30:34.887Z,98737.63
2023-05-04T22:33:44.092Z,98738.50
2023-05-04T22:36:49.818Z,98736.91
2023-05-04T22:39:56.185Z,98736.81
2023-05-04T22:43:01.660Z,98730.69
2023-05-04T22:46:08.400Z,98732.34
2023-05-04T22:49:17.588Z,98735.97
2023-05-04T22:52:23.943Z,98737.84
2023-05-04T22:55:29.448Z,98740.50
2023-05-04T22:58:35.809Z,98736.16
2023-05-04T23:01:43.707Z,98730.16
2023-05-04T23:04:53.381Z,98726.84
2023-05-04T23:07:58.828Z,98732.31
2023-05-04T23:11:05.387Z,98722.81
2023-05-04T23:14:11.644Z,98723.00
2023-05-04T23:17:18.224Z,98727.84
2023-05-04T23:20:26.545Z,98734.88
2023-05-04T23:23:32.851Z,98734.25
2023-05-04T23:26:38.333Z,98730.03
2023-05-04T23:29:44.944Z,98723.13
2023-05-04T23:32:50.716Z,98721.75
2023-05-04T23:36:02.931Z,98722.88
2023-05-04T23:39:08.771Z,98721.59
2023-05-04T23:42:15.150Z,98720.25
2023-05-04T23:45:21.011Z,98718.91
2023-05-04T23:48:27.333Z,98710.66
2023-05-04T23:51:35.980Z,98713.56
2023-05-04T23:54:42.286Z,98712.16
2023-05-04T23:57:47.739Z,98706.34
